sensor_id;sensor_type;location;lat;lon;timestamp;P1;durP1;ratioP1;P2;durP2;ratioP2
67749;SDS011;54550;48.838;8.828;2022-10-23T00:02:05;9.73;;;3.43;;
67749;SDS011;54550;48.838;8.828;2022-10-23T00:04:31;7.90;;;3.30;;
67749;SDS011;54550;48.838;8.828;2022-10-23T00:06:57;8.13;;;2.70;;
67749;SDS011;54550;48.838;8.828;2022-10-23T00:09:23;5.97;;;3.00;;
67749;SDS011;54550;48.838;8.828;2022-10-23T00:11:49;6.90;;;3.47;;
67749;SDS011;54550;48.838;8.828;2022-10-23T00:14:16;10.03;;;2.70;;
67749;SDS011;54550;48.838;8.828;2022-10-23T00:16:43;5.93;;;2.80;;
67749;SDS011;54550;48.838;8.828;2022-10-23T00:19:09;3.85;;;3.25;;
67749;SDS011;54550;48.838;8.828;2022-10-23T00:21:35;16.00;;;4.40;;
67749;SDS011;54550;48.838;8.828;2022-10-23T00:24:01;6.63;;;3.20;;
67749;SDS011;54550;48.838;8.828;2022-10-23T00:26:28;5.80;;;3.37;;
67749;SDS011;54550;48.838;8.828;2022-10-23T00:28:54;7.07;;;3.33;;
67749;SDS011;54550;48.838;8.828;2022-10-23T00:31:20;11.53;;;3.43;;
67749;SDS011;54550;48.838;8.828;2022-10-23T00:33:46;9.63;;;3.30;;
67749;SDS011;54550;48.838;8.828;2022-10-23T00:36:13;12.93;;;3.20;;
67749;SDS011;54550;48.838;8.828;2022-10-23T00:38:39;4.40;;;3.30;;
67749;SDS011;54550;48.838;8.828;2022-10-23T00:41:06;7.80;;;3.27;;
67749;SDS011;54550;48.838;8.828;2022-10-23T00:43:32;9.73;;;3.57;;
67749;SDS011;54550;48.838;8.828;2022-10-23T00:46:00;16.33;;;3.73;;
67749;SDS011;54550;48.838;8.828;2022-10-23T00:48:26;7.23;;;3.07;;
67749;SDS011;54550;48.838;8.828;2022-10-23T00:50:53;12.38;;;4.15;;
67749;SDS011;54550;48.838;8.828;2022-10-23T00:53:19;10.10;;;3.40;;
67749;SDS011;54550;48.838;8.828;2022-10-23T00:55:46;15.95;;;3.63;;
67749;SDS011;54550;48.838;8.828;2022-10-23T00:58:13;7.07;;;3.55;;
67749;SDS011;54550;48.838;8.828;2022-10-23T01:03:08;12.50;;;3.27;;
67749;SDS011;54550;48.838;8.828;2022-10-23T01:05:43;5.17;;;3.60;;
67749;SDS011;54550;48.838;8.828;2022-10-23T01:08:26;6.97;;;3.20;;
67749;SDS011;54550;48.838;8.828;2022-10-23T01:13:29;4.50;;;3.17;;
67749;SDS011;54550;48.838;8.828;2022-10-23T01:16:07;14.13;;;3.90;;
67749;SDS011;54550;48.838;8.828;2022-10-23T01:18:41;7.77;;;2.70;;
67749;SDS011;54550;48.838;8.828;2022-10-23T01:21:12;15.87;;;3.30;;
67749;SDS011;54550;48.838;8.828;2022-10-23T01:23:43;8.93;;;3.20;;
67749;SDS011;54550;48.838;8.828;2022-10-23T01:26:22;3.63;;;3.33;;
67749;SDS011;54550;48.838;8.828;2022-10-23T01:28:55;5.33;;;3.50;;
67749;SDS011;54550;48.838;8.828;2022-10-23T01:31:25;4.90;;;2.90;;
67749;SDS011;54550;48.838;8.828;2022-10-23T01:33:58;6.47;;;2.90;;
67749;SDS011;54550;48.838;8.828;2022-10-23T01:36:25;15.83;;;4.40;;
67749;SDS011;54550;48.838;8.828;2022-10-23T01:38:57;5.27;;;2.80;;
67749;SDS011;54550;48.838;8.828;2022-10-23T01:41:27;4.90;;;2.70;;
67749;SDS011;54550;48.838;8.828;2022-10-23T01:43:55;5.73;;;2.90;;
67749;SDS011;54550;48.838;8.828;2022-10-23T01:46:22;9.73;;;2.90;;
67749;SDS011;54550;48.838;8.828;2022-10-23T01:48:53;9.00;;;3.03;;
67749;SDS011;54550;48.838;8.828;2022-10-23T01:51:21;5.03;;;2.70;;
67749;SDS011;54550;48.838;8.828;2022-10-23T01:53:48;8.87;;;3.47;;
67749;SDS011;54550;48.838;8.828;2022-10-23T01:56:17;6.87;;;2.87;;
67749;SDS011;54550;48.838;8.828;2022-10-23T01:58:48;10.93;;;2.83;;
67749;SDS011;54550;48.838;8.828;2022-10-23T02:01:15;5.07;;;2.87;;
67749;SDS011;54550;48.838;8.828;2022-10-23T02:03:42;4.20;;;2.50;;
67749;SDS011;54550;48.838;8.828;2022-10-23T02:06:09;8.33;;;3.50;;
67749;SDS011;54550;48.838;8.828;2022-10-23T02:08:35;12.33;;;3.00;;
67749;SDS011;54550;48.838;8.828;2022-10-23T02:11:08;4.40;;;2.87;;
67749;SDS011;54550;48.838;8.828;2022-10-23T02:16:30;5.53;;;3.33;;
67749;SDS011;54550;48.838;8.828;2022-10-23T02:21:46;10.70;;;2.90;;
67749;SDS011;54550;48.838;8.828;2022-10-23T02:24:15;4.67;;;3.00;;
67749;SDS011;54550;48.838;8.828;2022-10-23T02:26:45;5.43;;;2.30;;
67749;SDS011;54550;48.838;8.828;2022-10-23T02:29:14;4.70;;;3.50;;
67749;SDS011;54550;48.838;8.828;2022-10-23T02:31:43;5.33;;;2.80;;
67749;SDS011;54550;48.838;8.828;2022-10-23T02:34:09;7.10;;;3.00;;
67749;SDS011;54550;48.838;8.828;2022-10-23T02:36:35;8.00;;;2.60;;
67749;SDS011;54550;48.838;8.828;2022-10-23T02:39:01;8.73;;;2.50;;
67749;SDS011;54550;48.838;8.828;2022-10-23T02:44:00;10.00;;;2.00;;
67749;SDS011;54550;48.838;8.828;2022-10-23T02:46:33;5.17;;;2.90;;
67749;SDS011;54550;48.838;8.828;2022-10-23T02:53:58;11.87;;;3.13;;
67749;SDS011;54550;48.838;8.828;2022-10-23T02:56:29;11.13;;;2.33;;
67749;SDS011;54550;48.838;8.828;2022-10-23T02:59:05;4.83;;;2.77;;
67749;SDS011;54550;48.838;8.828;2022-10-23T03:01:38;3.77;;;2.70;;
67749;SDS011;54550;48.838;8.828;2022-10-23T03:04:04;2.50;;;2.30;;
67749;SDS011;54550;48.838;8.828;2022-10-23T03:06:31;3.93;;;2.60;;
67749;SDS011;54550;48.838;8.828;2022-10-23T03:08:58;7.50;;;2.13;;
67749;SDS011;54550;48.838;8.828;2022-10-23T03:11:25;2.40;;;2.20;;
67749;SDS011;54550;48.838;8.828;2022-10-23T03:13:51;7.13;;;3.50;;
67749;SDS011;54550;48.838;8.828;2022-10-23T03:16:17;5.83;;;2.97;;
67749;SDS011;54550;48.838;8.828;2022-10-23T03:18:43;4.13;;;2.60;;
67749;SDS011;54550;48.838;8.828;2022-10-23T03:21:09;4.23;;;2.73;;
67749;SDS011;54550;48.838;8.828;2022-10-23T03:23:35;6.80;;;3.03;;
67749;SDS011;54550;48.838;8.828;2022-10-23T03:26:01;12.60;;;2.60;;
67749;SDS011;54550;48.838;8.828;2022-10-23T03:28:27;3.37;;;2.53;;
67749;SDS011;54550;48.838;8.828;2022-10-23T03:30:52;4.40;;;2.50;;
67749;SDS011;54550;48.838;8.828;2022-10-23T03:33:18;5.93;;;2.87;;
67749;SDS011;54550;48.838;8.828;2022-10-23T03:35:44;7.10;;;2.50;;
67749;SDS011;54550;48.838;8.828;2022-10-23T03:38:12;5.27;;;1.80;;
67749;SDS011;54550;48.838;8.828;2022-10-23T03:40:38;2.33;;;1.80;;
67749;SDS011;54550;48.838;8.828;2022-10-23T03:43:04;2.50;;;1.80;;
67749;SDS011;54550;48.838;8.828;2022-10-23T03:45:30;2.30;;;2.10;;
67749;SDS011;54550;48.838;8.828;2022-10-23T03:47:56;4.60;;;1.90;;
67749;SDS011;54550;48.838;8.828;2022-10-23T03:50:22;4.77;;;1.60;;
67749;SDS011;54550;48.838;8.828;2022-10-23T03:52:48;2.77;;;1.63;;
67749;SDS011;54550;48.838;8.828;2022-10-23T03:55:14;9.40;;;1.77;;
67749;SDS011;54550;48.838;8.828;2022-10-23T03:57:40;10.00;;;3.23;;
67749;SDS011;54550;48.838;8.828;2022-10-23T04:00:07;4.10;;;1.83;;
67749;SDS011;54550;48.838;8.828;2022-10-23T04:02:33;1.90;;;1.53;;
67749;SDS011;54550;48.838;8.828;2022-10-23T04:04:59;2.20;;;1.50;;
67749;SDS011;54550;48.838;8.828;2022-10-23T04:07:25;1.70;;;1.60;;
67749;SDS011;54550;48.838;8.828;2022-10-23T04:09:51;9.93;;;1.57;;
67749;SDS011;54550;48.838;8.828;2022-10-23T04:12:17;5.00;;;1.93;;
67749;SDS011;54550;48.838;8.828;2022-10-23T04:14:43;7.50;;;3.43;;
67749;SDS011;54550;48.838;8.828;2022-10-23T04:17:09;2.63;;;1.50;;
67749;SDS011;54550;48.838;8.828;2022-10-23T04:19:35;4.10;;;1.10;;
67749;SDS011;54550;48.838;8.828;2022-10-23T04:22:01;6.30;;;2.07;;
67749;SDS011;54550;48.838;8.828;2022-10-23T04:24:27;8.13;;;1.43;;
67749;SDS011;54550;48.838;8.828;2022-10-23T04:26:53;1.93;;;1.40;;
67749;SDS011;54550;48.838;8.828;2022-10-23T04:29:19;5.33;;;1.80;;
67749;SDS011;54550;48.838;8.828;2022-10-23T04:31:47;7.67;;;1.80;;
67749;SDS011;54550;48.838;8.828;2022-10-23T04:34:13;3.00;;;1.20;;
67749;SDS011;54550;48.838;8.828;2022-10-23T04:36:39;3.97;;;1.30;;
67749;SDS011;54550;48.838;8.828;2022-10-23T04:39:05;5.43;;;1.60;;
67749;SDS011;54550;48.838;8.828;2022-10-23T04:41:31;3.50;;;1.70;;
67749;SDS011;54550;48.838;8.828;2022-10-23T04:43:58;10.63;;;1.90;;
67749;SDS011;54550;48.838;8.828;2022-10-23T04:46:24;0.90;;;0.80;;
67749;SDS011;54550;48.838;8.828;2022-10-23T04:48:50;2.07;;;1.10;;
67749;SDS011;54550;48.838;8.828;2022-10-23T04:51:16;11.03;;;1.83;;
67749;SDS011;54550;48.838;8.828;2022-10-23T04:53:42;5.23;;;1.17;;
67749;SDS011;54550;48.838;8.828;2022-10-23T04:56:10;5.67;;;1.50;;
67749;SDS011;54550;48.838;8.828;2022-10-23T04:58:37;3.07;;;1.23;;
67749;SDS011;54550;48.838;8.828;2022-10-23T05:01:03;2.10;;;0.87;;
67749;SDS011;54550;48.838;8.828;2022-10-23T05:03:31;1.40;;;1.20;;
67749;SDS011;54550;48.838;8.828;2022-10-23T05:05:57;1.10;;;0.97;;
67749;SDS011;54550;48.838;8.828;2022-10-23T05:08:23;1.43;;;0.67;;
67749;SDS011;54550;48.838;8.828;2022-10-23T05:10:49;3.23;;;0.90;;
67749;SDS011;54550;48.838;8.828;2022-10-23T05:13:15;0.97;;;0.77;;
67749;SDS011;54550;48.838;8.828;2022-10-23T05:15:43;3.23;;;1.50;;
67749;SDS011;54550;48.838;8.828;2022-10-23T05:18:11;6.67;;;1.30;;
67749;SDS011;54550;48.838;8.828;2022-10-23T05:20:38;3.53;;;1.30;;
67749;SDS011;54550;48.838;8.828;2022-10-23T05:23:05;4.80;;;1.07;;
67749;SDS011;54550;48.838;8.828;2022-10-23T05:25:31;16.00;;;1.33;;
67749;SDS011;54550;48.838;8.828;2022-10-23T05:27:57;2.53;;;1.07;;
67749;SDS011;54550;48.838;8.828;2022-10-23T05:30:23;4.40;;;1.37;;
67749;SDS011;54550;48.838;8.828;2022-10-23T05:32:49;10.83;;;1.10;;
67749;SDS011;54550;48.838;8.828;2022-10-23T05:35:16;5.10;;;1.20;;
67749;SDS011;54550;48.838;8.828;2022-10-23T05:37:44;1.40;;;1.00;;
67749;SDS011;54550;48.838;8.828;2022-10-23T05:40:11;4.33;;;1.27;;
67749;SDS011;54550;48.838;8.828;2022-10-23T05:42:37;3.67;;;1.00;;
67749;SDS011;54550;48.838;8.828;2022-10-23T05:45:03;4.03;;;1.20;;
67749;SDS011;54550;48.838;8.828;2022-10-23T05:47:29;1.20;;;1.00;;
67749;SDS011;54550;48.838;8.828;2022-10-23T05:49:55;1.47;;;0.80;;
67749;SDS011;54550;48.838;8.828;2022-10-23T05:52:21;3.43;;;1.07;;
67749;SDS011;54550;48.838;8.828;2022-10-23T05:54:49;7.43;;;1.10;;
67749;SDS011;54550;48.838;8.828;2022-10-23T05:57:15;3.60;;;1.47;;
67749;SDS011;54550;48.838;8.828;2022-10-23T05:59:41;5.00;;;1.60;;
67749;SDS011;54550;48.838;8.828;2022-10-23T06:02:09;2.30;;;1.40;;
67749;SDS011;54550;48.838;8.828;2022-10-23T06:04:35;4.60;;;0.67;;
67749;SDS011;54550;48.838;8.828;2022-10-23T06:07:01;2.70;;;1.20;;
67749;SDS011;54550;48.838;8.828;2022-10-23T06:09:27;2.00;;;0.97;;
67749;SDS011;54550;48.838;8.828;2022-10-23T06:11:54;3.73;;;1.00;;
67749;SDS011;54550;48.838;8.828;2022-10-23T06:14:20;3.50;;;1.07;;
67749;SDS011;54550;48.838;8.828;2022-10-23T06:16:46;2.10;;;1.90;;
67749;SDS011;54550;48.838;8.828;2022-10-23T06:19:12;1.23;;;0.93;;
67749;SDS011;54550;48.838;8.828;2022-10-23T06:21:38;1.20;;;0.90;;
67749;SDS011;54550;48.838;8.828;2022-10-23T06:24:05;1.10;;;0.90;;
67749;SDS011;54550;48.838;8.828;2022-10-23T06:26:32;10.30;;;0.90;;
67749;SDS011;54550;48.838;8.828;2022-10-23T06:28:58;1.27;;;1.07;;
67749;SDS011;54550;48.838;8.828;2022-10-23T06:31:24;8.90;;;1.50;;
67749;SDS011;54550;48.838;8.828;2022-10-23T06:33:53;1.77;;;0.73;;
67749;SDS011;54550;48.838;8.828;2022-10-23T06:36:19;1.17;;;0.93;;
67749;SDS011;54550;48.838;8.828;2022-10-23T06:38:45;3.00;;;0.97;;
67749;SDS011;54550;48.838;8.828;2022-10-23T06:41:14;1.10;;;0.73;;
67749;SDS011;54550;48.838;8.828;2022-10-23T06:43:41;4.70;;;0.90;;
67749;SDS011;54550;48.838;8.828;2022-10-23T06:46:07;3.13;;;1.33;;
67749;SDS011;54550;48.838;8.828;2022-10-23T06:48:33;2.33;;;0.77;;
67749;SDS011;54550;48.838;8.828;2022-10-23T06:51:03;3.00;;;0.60;;
67749;SDS011;54550;48.838;8.828;2022-10-23T06:53:29;3.03;;;1.00;;
67749;SDS011;54550;48.838;8.828;2022-10-23T06:55:59;6.00;;;1.10;;
67749;SDS011;54550;48.838;8.828;2022-10-23T06:58:25;1.73;;;0.80;;
67749;SDS011;54550;48.838;8.828;2022-10-23T07:00:51;2.60;;;1.10;;
67749;SDS011;54550;48.838;8.828;2022-10-23T07:03:17;3.97;;;1.57;;
67749;SDS011;54550;48.838;8.828;2022-10-23T07:05:43;1.33;;;0.70;;
67749;SDS011;54550;48.838;8.828;2022-10-23T07:08:09;1.50;;;0.80;;
67749;SDS011;54550;48.838;8.828;2022-10-23T07:10:35;9.53;;;1.27;;
67749;SDS011;54550;48.838;8.828;2022-10-23T07:13:01;4.33;;;1.03;;
67749;SDS011;54550;48.838;8.828;2022-10-23T07:15:27;1.17;;;0.80;;
67749;SDS011;54550;48.838;8.828;2022-10-23T07:17:54;2.20;;;1.00;;
67749;SDS011;54550;48.838;8.828;2022-10-23T07:20:20;1.10;;;0.83;;
67749;SDS011;54550;48.838;8.828;2022-10-23T07:22:50;1.70;;;0.90;;
67749;SDS011;54550;48.838;8.828;2022-10-23T07:25:16;1.53;;;0.90;;
67749;SDS011;54550;48.838;8.828;2022-10-23T07:27:42;4.13;;;1.13;;
67749;SDS011;54550;48.838;8.828;2022-10-23T07:30:08;1.93;;;0.93;;
67749;SDS011;54550;48.838;8.828;2022-10-23T07:32:34;4.30;;;0.90;;
67749;SDS011;54550;48.838;8.828;2022-10-23T07:42:47;5.63;;;1.00;;
67749;SDS011;54550;48.838;8.828;2022-10-23T07:45:13;1.63;;;1.10;;
67749;SDS011;54550;48.838;8.828;2022-10-23T07:47:39;1.43;;;0.80;;
67749;SDS011;54550;48.838;8.828;2022-10-23T07:50:06;1.63;;;1.10;;
67749;SDS011;54550;48.838;8.828;2022-10-23T07:52:33;1.40;;;0.90;;
67749;SDS011;54550;48.838;8.828;2022-10-23T07:54:59;1.00;;;0.70;;
67749;SDS011;54550;48.838;8.828;2022-10-23T07:57:25;1.37;;;0.93;;
67749;SDS011;54550;48.838;8.828;2022-10-23T07:59:51;2.33;;;1.50;;
67749;SDS011;54550;48.838;8.828;2022-10-23T08:02:18;2.67;;;1.00;;
67749;SDS011;54550;48.838;8.828;2022-10-23T08:04:47;3.50;;;1.37;;
67749;SDS011;54550;48.838;8.828;2022-10-23T08:07:13;4.77;;;0.80;;
67749;SDS011;54550;48.838;8.828;2022-10-23T08:09:39;1.97;;;1.00;;
67749;SDS011;54550;48.838;8.828;2022-10-23T08:12:05;2.90;;;1.40;;
67749;SDS011;54550;48.838;8.828;2022-10-23T08:14:31;3.87;;;0.73;;
67749;SDS011;54550;48.838;8.828;2022-10-23T08:16:57;1.00;;;0.80;;
67749;SDS011;54550;48.838;8.828;2022-10-23T08:19:23;4.40;;;1.00;;
67749;SDS011;54550;48.838;8.828;2022-10-23T08:21:49;1.37;;;0.70;;
67749;SDS011;54550;48.838;8.828;2022-10-23T08:24:18;1.40;;;0.70;;
67749;SDS011;54550;48.838;8.828;2022-10-23T08:26:44;3.10;;;1.00;;
67749;SDS011;54550;48.838;8.828;2022-10-23T08:29:10;0.80;;;0.40;;
67749;SDS011;54550;48.838;8.828;2022-10-23T08:31:36;2.37;;;0.70;;
67749;SDS011;54550;48.838;8.828;2022-10-23T08:34:02;1.17;;;0.50;;
67749;SDS011;54550;48.838;8.828;2022-10-23T08:36:28;0.80;;;0.50;;
67749;SDS011;54550;48.838;8.828;2022-10-23T08:38:55;1.50;;;0.77;;
67749;SDS011;54550;48.838;8.828;2022-10-23T08:43:47;1.47;;;0.70;;
67749;SDS011;54550;48.838;8.828;2022-10-23T08:46:16;2.40;;;1.10;;
67749;SDS011;54550;48.838;8.828;2022-10-23T08:48:46;3.20;;;0.60;;
67749;SDS011;54550;48.838;8.828;2022-10-23T08:54:17;1.03;;;0.50;;
67749;SDS011;54550;48.838;8.828;2022-10-23T08:56:48;1.00;;;0.73;;
67749;SDS011;54550;48.838;8.828;2022-10-23T08:59:29;5.63;;;0.90;;
67749;SDS011;54550;48.838;8.828;2022-10-23T09:02:01;1.50;;;0.80;;
67749;SDS011;54550;48.838;8.828;2022-10-23T09:04:29;1.83;;;0.80;;
67749;SDS011;54550;48.838;8.828;2022-10-23T09:12:15;1.00;;;0.67;;
67749;SDS011;54550;48.838;8.828;2022-10-23T09:14:55;3.33;;;0.70;;
67749;SDS011;54550;48.838;8.828;2022-10-23T09:17:24;1.40;;;0.80;;
67749;SDS011;54550;48.838;8.828;2022-10-23T09:19:53;2.13;;;0.87;;
67749;SDS011;54550;48.838;8.828;2022-10-23T09:22:20;1.87;;;0.93;;
67749;SDS011;54550;48.838;8.828;2022-10-23T09:24:46;3.13;;;0.50;;
67749;SDS011;54550;48.838;8.828;2022-10-23T09:27:13;3.73;;;0.70;;
67749;SDS011;54550;48.838;8.828;2022-10-23T09:29:45;1.67;;;0.50;;
67749;SDS011;54550;48.838;8.828;2022-10-23T09:34:49;3.27;;;0.77;;
67749;SDS011;54550;48.838;8.828;2022-10-23T09:37:23;3.23;;;0.70;;
67749;SDS011;54550;48.838;8.828;2022-10-23T09:40:00;1.60;;;0.90;;
67749;SDS011;54550;48.838;8.828;2022-10-23T09:42:26;5.63;;;0.83;;
67749;SDS011;54550;48.838;8.828;2022-10-23T09:44:53;0.80;;;0.50;;
67749;SDS011;54550;48.838;8.828;2022-10-23T09:52:35;1.00;;;0.50;;
67749;SDS011;54550;48.838;8.828;2022-10-23T09:55:02;1.33;;;0.43;;
67749;SDS011;54550;48.838;8.828;2022-10-23T09:57:41;1.07;;;0.70;;
67749;SDS011;54550;48.838;8.828;2022-10-23T10:02:39;1.00;;;0.57;;
67749;SDS011;54550;48.838;8.828;2022-10-23T10:05:22;1.00;;;0.60;;
67749;SDS011;54550;48.838;8.828;2022-10-23T10:07:59;0.90;;;0.50;;
67749;SDS011;54550;48.838;8.828;2022-10-23T10:10:38;3.13;;;0.53;;
67749;SDS011;54550;48.838;8.828;2022-10-23T10:15:51;1.70;;;0.60;;
67749;SDS011;54550;48.838;8.828;2022-10-23T10:18:22;2.20;;;0.50;;
67749;SDS011;54550;48.838;8.828;2022-10-23T10:23:27;3.53;;;0.50;;
67749;SDS011;54550;48.838;8.828;2022-10-23T10:33:47;3.80;;;0.73;;
67749;SDS011;54550;48.838;8.828;2022-10-23T10:38:50;1.00;;;0.53;;
67749;SDS011;54550;48.838;8.828;2022-10-23T10:46:15;2.53;;;0.93;;
67749;SDS011;54550;48.838;8.828;2022-10-23T10:48:48;0.90;;;0.40;;
67749;SDS011;54550;48.838;8.828;2022-10-23T10:51:29;0.90;;;0.40;;
67749;SDS011;54550;48.838;8.828;2022-10-23T10:56:25;2.97;;;0.50;;
67749;SDS011;54550;48.838;8.828;2022-10-23T10:58:56;0.80;;;0.50;;
67749;SDS011;54550;48.838;8.828;2022-10-23T11:01:40;0.90;;;0.50;;
67749;SDS011;54550;48.838;8.828;2022-10-23T11:04:12;1.20;;;0.60;;
67749;SDS011;54550;48.838;8.828;2022-10-23T11:06:38;1.57;;;0.57;;
67749;SDS011;54550;48.838;8.828;2022-10-23T11:09:13;1.50;;;0.70;;
67749;SDS011;54550;48.838;8.828;2022-10-23T11:37:31;1.10;;;0.80;;
67749;SDS011;54550;48.838;8.828;2022-10-23T11:47:54;1.40;;;0.70;;
67749;SDS011;54550;48.838;8.828;2022-10-23T12:00:32;1.97;;;0.70;;
67749;SDS011;54550;48.838;8.828;2022-10-23T12:23:52;1.13;;;0.60;;
67749;SDS011;54550;48.838;8.828;2022-10-23T12:31:44;2.40;;;0.73;;
67749;SDS011;54550;48.838;8.828;2022-10-23T12:52:23;3.90;;;0.50;;
67749;SDS011;54550;48.838;8.828;2022-10-23T12:54:49;1.57;;;0.53;;
67749;SDS011;54550;48.838;8.828;2022-10-23T12:59:48;1.10;;;0.73;;
67749;SDS011;54550;48.838;8.828;2022-10-23T13:02:28;7.70;;;0.70;;
67749;SDS011;54550;48.838;8.828;2022-10-23T13:12:42;11.13;;;0.90;;
67749;SDS011;54550;48.838;8.828;2022-10-23T13:15:15;0.80;;;0.47;;
67749;SDS011;54550;48.838;8.828;2022-10-23T13:17:43;7.03;;;0.77;;
67749;SDS011;54550;48.838;8.828;2022-10-23T13:22:42;6.37;;;0.60;;
67749;SDS011;54550;48.838;8.828;2022-10-23T13:27:44;2.23;;;0.53;;
67749;SDS011;54550;48.838;8.828;2022-10-23T14:26:28;1.47;;;0.87;;
67749;SDS011;54550;48.838;8.828;2022-10-23T14:31:30;2.80;;;1.17;;
67749;SDS011;54550;48.838;8.828;2022-10-23T14:33:56;2.70;;;1.80;;
67749;SDS011;54550;48.838;8.828;2022-10-23T14:36:24;7.00;;;2.40;;
67749;SDS011;54550;48.838;8.828;2022-10-23T14:38:57;7.17;;;2.90;;
67749;SDS011;54550;48.838;8.828;2022-10-23T14:41:24;3.20;;;1.97;;
67749;SDS011;54550;48.838;8.828;2022-10-23T14:43:50;4.07;;;1.80;;
67749;SDS011;54550;48.838;8.828;2022-10-23T14:46:19;3.63;;;2.07;;
67749;SDS011;54550;48.838;8.828;2022-10-23T14:48:45;6.83;;;2.97;;
67749;SDS011;54550;48.838;8.828;2022-10-23T14:53:47;5.57;;;2.83;;
67749;SDS011;54550;48.838;8.828;2022-10-23T14:56:13;4.20;;;2.53;;
67749;SDS011;54550;48.838;8.828;2022-10-23T14:58:40;6.13;;;2.07;;
67749;SDS011;54550;48.838;8.828;2022-10-23T15:01:07;4.30;;;0.97;;
67749;SDS011;54550;48.838;8.828;2022-10-23T15:03:43;2.53;;;1.40;;
67749;SDS011;54550;48.838;8.828;2022-10-23T15:06:09;3.87;;;1.93;;
67749;SDS011;54550;48.838;8.828;2022-10-23T15:08:35;1.87;;;1.20;;
67749;SDS011;54550;48.838;8.828;2022-10-23T15:11:02;4.23;;;1.07;;
67749;SDS011;54550;48.838;8.828;2022-10-23T15:13:29;2.57;;;0.70;;
67749;SDS011;54550;48.838;8.828;2022-10-23T15:16:05;4.90;;;1.27;;
67749;SDS011;54550;48.838;8.828;2022-10-23T15:18:31;3.03;;;1.00;;
67749;SDS011;54550;48.838;8.828;2022-10-23T15:20:57;1.93;;;1.00;;
67749;SDS011;54550;48.838;8.828;2022-10-23T15:23:23;2.30;;;1.50;;
67749;SDS011;54550;48.838;8.828;2022-10-23T15:25:53;5.80;;;0.93;;
67749;SDS011;54550;48.838;8.828;2022-10-23T15:28:19;2.47;;;1.30;;
67749;SDS011;54550;48.838;8.828;2022-10-23T15:30:45;18.10;;;1.70;;
67749;SDS011;54550;48.838;8.828;2022-10-23T15:33:11;3.70;;;0.87;;
67749;SDS011;54550;48.838;8.828;2022-10-23T15:35:37;3.23;;;1.50;;
67749;SDS011;54550;48.838;8.828;2022-10-23T15:38:03;2.10;;;1.20;;
67749;SDS011;54550;48.838;8.828;2022-10-23T15:40:29;2.17;;;0.90;;
67749;SDS011;54550;48.838;8.828;2022-10-23T15:42:55;2.50;;;1.20;;
67749;SDS011;54550;48.838;8.828;2022-10-23T15:45:21;2.90;;;0.90;;
67749;SDS011;54550;48.838;8.828;2022-10-23T15:47:47;1.90;;;0.93;;
67749;SDS011;54550;48.838;8.828;2022-10-23T15:50:14;4.07;;;1.30;;
67749;SDS011;54550;48.838;8.828;2022-10-23T15:52:40;1.67;;;1.57;;
67749;SDS011;54550;48.838;8.828;2022-10-23T15:55:08;3.43;;;1.97;;
67749;SDS011;54550;48.838;8.828;2022-10-23T15:57:36;2.60;;;1.77;;
67749;SDS011;54550;48.838;8.828;2022-10-23T16:00:03;4.43;;;1.40;;
67749;SDS011;54550;48.838;8.828;2022-10-23T16:02:29;3.50;;;1.10;;
67749;SDS011;54550;48.838;8.828;2022-10-23T16:04:55;3.63;;;1.07;;
67749;SDS011;54550;48.838;8.828;2022-10-23T16:07:21;2.40;;;1.50;;
67749;SDS011;54550;48.838;8.828;2022-10-23T16:09:47;2.30;;;1.83;;
67749;SDS011;54550;48.838;8.828;2022-10-23T16:12:13;4.80;;;3.20;;
67749;SDS011;54550;48.838;8.828;2022-10-23T16:14:39;6.00;;;2.90;;
67749;SDS011;54550;48.838;8.828;2022-10-23T16:17:05;4.00;;;1.80;;
67749;SDS011;54550;48.838;8.828;2022-10-23T16:19:31;3.73;;;1.37;;
67749;SDS011;54550;48.838;8.828;2022-10-23T16:21:57;3.50;;;1.47;;
67749;SDS011;54550;48.838;8.828;2022-10-23T16:24:23;3.80;;;1.23;;
67749;SDS011;54550;48.838;8.828;2022-10-23T16:26:49;2.77;;;1.10;;
67749;SDS011;54550;48.838;8.828;2022-10-23T16:29:17;4.37;;;1.03;;
67749;SDS011;54550;48.838;8.828;2022-10-23T16:31:46;2.80;;;1.00;;
67749;SDS011;54550;48.838;8.828;2022-10-23T16:34:12;3.90;;;1.37;;
67749;SDS011;54550;48.838;8.828;2022-10-23T16:36:37;1.60;;;0.93;;
67749;SDS011;54550;48.838;8.828;2022-10-23T16:39:04;1.20;;;0.67;;
67749;SDS011;54550;48.838;8.828;2022-10-23T16:41:30;7.67;;;1.27;;
67749;SDS011;54550;48.838;8.828;2022-10-23T16:43:56;4.83;;;1.40;;
67749;SDS011;54550;48.838;8.828;2022-10-23T16:46:22;1.53;;;1.00;;
67749;SDS011;54550;48.838;8.828;2022-10-23T16:48:50;5.30;;;0.87;;
67749;SDS011;54550;48.838;8.828;2022-10-23T16:51:20;2.70;;;1.00;;
67749;SDS011;54550;48.838;8.828;2022-10-23T16:53:46;1.40;;;0.90;;
67749;SDS011;54550;48.838;8.828;2022-10-23T16:56:13;1.63;;;0.90;;
67749;SDS011;54550;48.838;8.828;2022-10-23T16:58:40;1.50;;;1.07;;
67749;SDS011;54550;48.838;8.828;2022-10-23T17:01:10;2.30;;;1.80;;
67749;SDS011;54550;48.838;8.828;2022-10-23T17:03:41;3.10;;;0.90;;
67749;SDS011;54550;48.838;8.828;2022-10-23T17:06:08;13.47;;;1.17;;
67749;SDS011;54550;48.838;8.828;2022-10-23T17:08:35;1.93;;;1.20;;
67749;SDS011;54550;48.838;8.828;2022-10-23T17:13:40;6.40;;;1.40;;
67749;SDS011;54550;48.838;8.828;2022-10-23T17:16:07;4.57;;;1.73;;
67749;SDS011;54550;48.838;8.828;2022-10-23T17:18:34;4.30;;;1.73;;
67749;SDS011;54550;48.838;8.828;2022-10-23T17:21:00;3.87;;;1.17;;
67749;SDS011;54550;48.838;8.828;2022-10-23T17:26:02;8.13;;;2.10;;
67749;SDS011;54550;48.838;8.828;2022-10-23T17:28:31;4.80;;;2.50;;
67749;SDS011;54550;48.838;8.828;2022-10-23T17:31:01;4.73;;;2.27;;
67749;SDS011;54550;48.838;8.828;2022-10-23T17:33:27;7.10;;;1.40;;
67749;SDS011;54550;48.838;8.828;2022-10-23T17:35:53;3.00;;;0.97;;
67749;SDS011;54550;48.838;8.828;2022-10-23T17:38:19;2.73;;;1.00;;
67749;SDS011;54550;48.838;8.828;2022-10-23T17:43:28;2.93;;;1.20;;
67749;SDS011;54550;48.838;8.828;2022-10-23T17:45:54;4.00;;;1.63;;
67749;SDS011;54550;48.838;8.828;2022-10-23T17:48:20;2.73;;;1.40;;
67749;SDS011;54550;48.838;8.828;2022-10-23T17:50:46;3.40;;;1.13;;
67749;SDS011;54550;48.838;8.828;2022-10-23T17:55:48;12.93;;;2.93;;
67749;SDS011;54550;48.838;8.828;2022-10-23T17:58:14;2.60;;;1.30;;
67749;SDS011;54550;48.838;8.828;2022-10-23T18:00:40;7.60;;;2.03;;
67749;SDS011;54550;48.838;8.828;2022-10-23T18:03:06;17.07;;;2.23;;
67749;SDS011;54550;48.838;8.828;2022-10-23T18:05:32;6.53;;;2.20;;
67749;SDS011;54550;48.838;8.828;2022-10-23T18:10:34;10.00;;;1.70;;
67749;SDS011;54550;48.838;8.828;2022-10-23T18:13:00;6.57;;;2.47;;
67749;SDS011;54550;48.838;8.828;2022-10-23T18:15:26;3.00;;;2.00;;
67749;SDS011;54550;48.838;8.828;2022-10-23T18:17:52;18.73;;;3.07;;
67749;SDS011;54550;48.838;8.828;2022-10-23T18:20:18;12.90;;;3.67;;
67749;SDS011;54550;48.838;8.828;2022-10-23T18:22:44;28.00;;;3.77;;
67749;SDS011;54550;48.838;8.828;2022-10-23T18:25:10;15.20;;;3.07;;
67749;SDS011;54550;48.838;8.828;2022-10-23T18:27:36;15.23;;;3.77;;
67749;SDS011;54550;48.838;8.828;2022-10-23T18:30:05;10.10;;;2.80;;
67749;SDS011;54550;48.838;8.828;2022-10-23T18:32:31;17.17;;;2.73;;
67749;SDS011;54550;48.838;8.828;2022-10-23T18:34:58;20.80;;;4.80;;
67749;SDS011;54550;48.838;8.828;2022-10-23T18:37:24;11.10;;;3.77;;
67749;SDS011;54550;48.838;8.828;2022-10-23T18:39:50;11.83;;;3.87;;
67749;SDS011;54550;48.838;8.828;2022-10-23T18:42:16;13.83;;;2.60;;
67749;SDS011;54550;48.838;8.828;2022-10-23T18:44:42;25.10;;;3.60;;
67749;SDS011;54550;48.838;8.828;2022-10-23T18:47:13;27.70;;;3.30;;
67749;SDS011;54550;48.838;8.828;2022-10-23T18:49:39;13.83;;;2.93;;
67749;SDS011;54550;48.838;8.828;2022-10-23T18:52:05;12.60;;;3.80;;
67749;SDS011;54550;48.838;8.828;2022-10-23T18:54:31;11.97;;;3.63;;
67749;SDS011;54550;48.838;8.828;2022-10-23T18:56:57;21.70;;;3.57;;